Time;durP1;ratioP1;P1;durP2;ratioP2;P2;SDS_P1;SDS_P2;PMS_P1;PMS_P2;Temp;Humidity;BMP_temperature;BMP_pressure;BME280_temperature;BME280_humidity;BME280_pressure;Samples;Min_cycle;Max_cycle;Signal;HPM_P1;HPM_P2
2021/05/31 00:00:39;;;;;;;5.25;3.30;;;;;;;13.61;64.76;101021.50;5035725;28;20410;-66
2021/05/31 00:03:23;;;;;;;5.93;3.35;;;;;;;13.47;66.09;101027.34;5035642;28;20103;-66
2021/05/31 00:06:07;;;;;;;5.00;3.65;;;;;;;13.29;66.27;101018.34;5035898;28;20103;-65
2021/05/31 00:08:51;;;;;;;3.97;3.08;;;;;;;13.18;66.29;101013.16;5036792;28;20126;-66
2021/05/31 00:11:35;;;;;;;8.40;3.22;;;;;;;13.11;66.35;101004.84;5035515;28;20060;-65
2021/05/31 00:14:19;;;;;;;4.65;3.72;;;;;;;13.04;66.26;101014.41;5036433;28;20068;-65
2021/05/31 00:17:03;;;;;;;4.10;3.15;;;;;;;12.98;66.27;101006.13;5036131;28;20107;-66
2021/05/31 00:19:48;;;;;;;5.00;3.38;;;;;;;12.89;67.74;101017.63;5036342;28;20497;-66
2021/05/31 00:22:32;;;;;;;8.02;3.60;;;;;;;12.75;67.69;101004.69;5036304;28;20601;-65
2021/05/31 00:25:16;;;;;;;5.45;3.42;;;;;;;12.60;67.28;101003.41;5035289;28;20072;-66
2021/05/31 00:28:00;;;;;;;;;;;;;;;12.48;67.74;101011.72;5035569;28;20045;-66
2021/05/31 00:30:44;;;;;;;10.05;4.10;;;;;;;12.41;69.29;101008.72;5034940;28;19920;-63
2021/05/31 00:33:28;;;;;;;5.18;3.08;;;;;;;12.28;70.54;101010.81;5035142;28;20087;-66
2021/05/31 00:36:12;;;;;;;11.27;3.55;;;;;;;12.16;71.05;101011.03;5036089;28;20083;-65
2021/05/31 00:38:55;;;;;;;6.50;3.35;;;;;;;11.94;72.69;101006.78;5035685;28;20056;-66
2021/05/31 00:41:44;;;;;;;5.80;3.33;;;;;;;11.80;74.49;101004.44;5034669;28;20057;-66
2021/05/31 00:44:28;;;;;;;6.43;3.75;;;;;;;11.68;75.45;101005.53;5034835;28;20099;-66
2021/05/31 00:47:12;;;;;;;4.75;3.50;;;;;;;11.58;75.43;100998.47;5034894;28;20517;-65
2021/05/31 00:49:57;;;;;;;8.15;3.80;;;;;;;11.47;76.85;100999.34;5035722;28;20096;-66
2021/05/31 00:52:43;;;;;;;8.52;3.80;;;;;;;11.39;76.98;100995.66;5034762;28;20052;-65
2021/05/31 00:55:27;;;;;;;4.80;3.65;;;;;;;11.30;75.79;100999.97;5034668;28;20044;-66
2021/05/31 00:58:11;;;;;;;6.05;3.97;;;;;;;11.25;75.42;101002.16;5034218;28;20049;-65
2021/05/31 01:00:57;;;;;;;4.85;3.88;;;;;;;11.19;76.95;101008.03;5035345;28;20099;-65
2021/05/31 01:03:42;;;;;;;5.20;3.65;;;;;;;11.19;76.92;100997.38;5035462;28;20107;-66
2021/05/31 01:06:30;;;;;;;6.07;3.42;;;;;;;11.16;77.89;100994.94;5034194;28;20047;-66
2021/05/31 01:09:25;;;;;;;4.35;3.42;;;;;;;11.17;77.39;100987.78;5034104;28;20083;-66
2021/05/31 01:12:34;;;;;;;5.93;3.33;;;;;;;11.15;78.45;100995.91;5035393;28;20040;-66
2021/05/31 01:15:34;;;;;;;8.32;3.63;;;;;;;11.16;79.05;101002.94;5034573;28;20120;-66
2021/05/31 01:18:22;;;;;;;8.45;3.97;;;;;;;11.18;78.14;100984.97;5034085;28;20125;-66
2021/05/31 01:21:25;;;;;;;5.57;3.85;;;;;;;11.24;76.33;100989.78;5020016;28;20055;-65
2021/05/31 01:24:25;;;;;;;4.15;3.22;;;;;;;11.31;74.85;100988.31;5035071;28;20048;-66
2021/05/31 01:27:12;;;;;;;9.13;4.28;;;;;;;11.33;74.98;100989.00;5033800;28;20052;-65
2021/05/31 01:30:03;;;;;;;7.45;3.92;;;;;;;11.36;74.38;100988.75;5019801;28;20056;-66
2021/05/31 01:32:47;;;;;;;6.10;4.20;;;;;;;11.39;73.49;100987.63;5034936;28;20047;-65
2021/05/31 01:35:33;;;;;;;5.15;3.67;;;;;;;11.40;72.74;100979.50;5033984;28;20049;-66
2021/05/31 01:38:19;;;;;;;5.55;3.90;;;;;;;11.43;71.98;100973.91;5034120;28;20135;-66
2021/05/31 01:41:03;;;;;;;5.63;4.30;;;;;;;11.45;71.74;100977.28;5033809;28;20052;-66
2021/05/31 01:43:48;;;;;;;6.82;4.38;;;;;;;11.45;71.51;100971.09;5033481;28;20048;-66
2021/05/31 01:46:34;;;;;;;6.03;4.40;;;;;;;11.47;71.42;100972.63;5033758;28;20114;-64
2021/05/31 01:49:19;;;;;;;5.47;4.07;;;;;;;11.49;70.86;100975.19;5033623;28;20417;-66
2021/05/31 01:52:05;;;;;;;7.03;4.03;;;;;;;11.49;71.04;100981.34;5033301;28;20063;-66
2021/05/31 01:54:54;;;;;;;4.25;3.22;;;;;;;11.52;70.62;100966.91;5034300;28;20414;-65
2021/05/31 01:57:38;;;;;;;7.97;3.63;;;;;;;11.54;70.97;100973.81;5019270;28;20102;-66
2021/05/31 02:00:23;;;;;;;4.55;3.67;;;;;;;11.51;70.74;100971.41;5033452;28;20052;-66
2021/05/31 02:03:07;;;;;;;5.90;3.55;;;;;;;11.54;70.29;100975.63;5033314;28;20132;-66
2021/05/31 02:05:51;;;;;;;8.45;3.85;;;;;;;11.52;70.95;100973.09;5034419;28;20056;-66
2021/05/31 02:08:35;;;;;;;4.07;3.35;;;;;;;11.52;70.16;100973.09;5034221;28;20051;-65
2021/05/31 02:11:27;;;;;;;7.78;3.53;;;;;;;11.54;70.40;100971.13;5034294;28;20135;-65
2021/05/31 02:14:26;;;;;;;5.65;3.70;;;;;;;11.53;70.57;100969.44;5034260;28;20041;-66
2021/05/31 02:17:48;;;;;;;6.57;4.13;;;;;;;11.51;70.94;100971.41;5033173;28;20091;-65
2021/05/31 02:20:33;;;;;;;6.55;4.13;;;;;;;11.52;71.59;100973.09;5033817;28;20052;-65
2021/05/31 02:23:17;;;;;;;6.22;3.67;;;;;;;11.49;71.92;100965.34;5033010;28;20487;-66
2021/05/31 02:26:02;;;;;;;6.80;4.30;;;;;;;11.42;72.31;100964.19;5018748;28;20048;-65
2021/05/31 02:28:47;;;;;;;10.35;4.55;;;;;;;11.29;73.38;100954.72;5032884;28;20183;-66
2021/05/31 02:31:32;;;;;;;5.78;3.92;;;;;;;11.26;73.05;100961.16;5032641;28;20059;-66
2021/05/31 02:34:16;;;;;;;9.43;4.50;;;;;;;11.20;73.36;100960.81;5033112;28;20084;-66
2021/05/31 02:37:01;;;;;;;7.57;4.20;;;;;;;11.16;73.48;100954.91;5032584;28;20422;-66
2021/05/31 02:39:45;;;;;;;6.65;4.47;;;;;;;11.14;73.53;100953.34;5032780;28;20579;-67
2021/05/31 02:42:29;;;;;;;6.57;4.28;;;;;;;11.08;73.30;100960.03;5033740;28;20170;-65
2021/05/31 02:45:14;;;;;;;6.38;3.75;;;;;;;11.04;73.52;100955.97;5033025;28;20044;-66
2021/05/31 02:47:59;;;;;;;5.20;4.00;;;;;;;11.02;73.60;100957.06;5032486;28;20071;-65
2021/05/31 02:50:43;;;;;;;6.00;4.35;;;;;;;10.98;73.71;100964.47;5032645;28;20067;-65
2021/05/31 02:53:37;;;;;;;5.20;3.72;;;;;;;10.94;73.62;100960.38;5032299;28;20099;-66
2021/05/31 02:56:21;;;;;;;8.48;3.92;;;;;;;10.90;74.47;100961.63;5018599;28;20048;-66
2021/05/31 02:59:05;;;;;;;5.90;3.88;;;;;;;10.86;74.55;100957.50;5033078;28;20052;-65
2021/05/31 03:01:49;;;;;;;7.28;4.43;;;;;;;10.85;74.49;100952.31;5033471;28;20088;-64
2021/05/31 03:04:33;;;;;;;10.02;4.00;;;;;;;10.85;74.65;100949.66;5017445;28;20427;-66
2021/05/31 03:07:17;;;;;;;7.65;4.40;;;;;;;10.83;74.75;100947.09;5033343;28;20124;-67
2021/05/31 03:10:00;;;;;;;7.00;3.85;;;;;;;10.81;74.80;100949.06;5032147;28;20048;-66
2021/05/31 03:12:45;;;;;;;7.95;4.18;;;;;;;10.78;74.53;100938.66;5033096;28;20057;-66
2021/05/31 03:15:29;;;;;;;;;;;;;;;10.75;74.45;100946.91;5032451;28;20060;-66
2021/05/31 03:18:13;;;;;;;8.57;3.95;;;;;;;10.74;74.73;100947.88;5032274;28;19920;-66
2021/05/31 03:20:57;;;;;;;8.48;4.43;;;;;;;10.75;74.35;100954.06;5032334;28;20487;-66
2021/05/31 03:23:41;;;;;;;5.75;4.22;;;;;;;10.72;73.74;100949.84;5032185;28;20092;-65
2021/05/31 03:26:25;;;;;;;4.50;3.55;;;;;;;10.69;74.08;100943.91;5033268;28;20069;-66
2021/05/31 03:29:09;;;;;;;5.45;3.60;;;;;;;10.70;74.05;100953.59;5032945;28;20103;-66
2021/05/31 03:31:53;;;;;;;10.07;4.30;;;;;;;10.71;73.75;100955.28;5033221;28;20049;-64
2021/05/31 03:34:37;;;;;;;8.15;4.25;;;;;;;10.68;73.48;100948.41;5017978;28;20096;-65
2021/05/31 03:37:21;;;;;;;5.30;4.05;;;;;;;10.70;72.58;100951.78;5031868;28;20122;-66
2021/05/31 03:40:06;;;;;;;6.53;3.83;;;;;;;10.74;71.92;100955.88;5033421;28;20501;-66
2021/05/31 03:42:54;;;;;;;6.75;3.92;;;;;;;10.74;72.12;100963.06;5033133;28;20071;-66
2021/05/31 03:45:38;;;;;;;4.82;3.55;;;;;;;10.78;71.89;100964.47;5031828;28;20143;-66
2021/05/31 03:48:22;;;;;;;5.55;3.90;;;;;;;10.77;71.63;100963.63;5031999;28;20048;-65
2021/05/31 03:51:10;;;;;;;6.70;3.85;;;;;;;10.78;72.00;100965.34;5033149;28;20057;-66
2021/05/31 03:53:54;;;;;;;5.90;3.55;;;;;;;10.71;72.06;100969.47;5032727;28;20079;-66
2021/05/31 03:56:38;;;;;;;7.32;3.58;;;;;;;10.70;72.91;100966.94;5031758;28;20132;-66
2021/05/31 03:59:23;;;;;;;7.95;3.47;;;;;;;10.68;73.13;100969.75;5032792;28;20048;-66
2021/05/31 04:02:07;;;;;;;4.20;3.50;;;;;;;10.66;73.10;100965.50;5031949;28;20048;-66
2021/05/31 04:04:53;;;;;;;6.78;4.00;;;;;;;10.64;72.52;100978.13;5017935;28;20136;-66
2021/05/31 04:13:43;;;;;;;7.00;3.80;;;;;;;10.64;72.61;100972.78;5032533;28;20041;-66
2021/05/31 04:16:27;;;;;;;7.53;4.00;;;;;;;10.64;72.70;100976.28;5035126;28;20082;-66
2021/05/31 04:19:12;;;;;;;10.43;3.47;;;;;;;10.73;72.56;100974.66;5035103;28;20049;-66
2021/05/31 04:21:56;;;;;;;4.82;3.50;;;;;;;10.79;72.50;100976.84;5035399;28;20079;-66
2021/05/31 04:24:40;;;;;;;5.22;3.58;;;;;;;10.85;71.87;100977.16;5021312;28;20048;-66
2021/05/31 04:27:24;;;;;;;7.90;4.03;;;;;;;10.92;71.54;100981.00;5034913;28;20091;-66
2021/05/31 04:30:09;;;;;;;6.13;3.53;;;;;;;10.97;70.50;100983.28;5021211;28;20120;-65
2021/05/31 04:32:53;;;;;;;12.27;3.60;;;;;;;11.02;70.32;100981.94;5035135;28;20078;-66
2021/05/31 04:35:37;;;;;;;6.15;3.55;;;;;;;11.07;69.41;100982.38;5035736;28;20506;-66
2021/05/31 04:38:21;;;;;;;5.78;3.45;;;;;;;11.12;69.40;100988.19;5035021;28;20048;-66
2021/05/31 04:41:05;;;;;;;5.40;3.53;;;;;;;11.23;68.72;100988.09;5035861;28;20105;-66
2021/05/31 04:43:49;;;;;;;5.70;3.70;;;;;;;11.27;69.04;100978.84;5036128;28;20110;-65
2021/05/31 04:46:33;;;;;;;9.23;3.67;;;;;;;11.35;68.30;100987.06;5021211;28;20095;-64
2021/05/31 04:49:17;;;;;;;;;;;;;;;11.39;68.06;100987.63;5034936;28;20048;-65
2021/05/31 04:52:02;;;;;;;9.27;3.70;;;;;;;11.47;67.82;100983.31;5034574;28;19920;-64
2021/05/31 04:54:48;;;;;;;9.40;3.53;;;;;;;11.52;67.64;100989.13;5034782;28;20040;-65
2021/05/31 04:57:32;;;;;;;6.97;2.80;;;;;;;11.57;67.86;100986.91;5020675;28;20052;-64
2021/05/31 05:00:16;;;;;;;5.25;3.70;;;;;;;11.66;68.05;100986.13;5034333;28;20107;-65
2021/05/31 05:03:00;;;;;;;8.70;3.15;;;;;;;11.73;67.15;100992.63;5034745;28;20052;-64
2021/05/31 05:05:45;;;;;;;7.32;2.92;;;;;;;11.82;67.46;100997.16;5034547;28;20099;-65
2021/05/31 05:08:29;;;;;;;5.45;3.50;;;;;;;11.90;66.80;100994.63;5034566;28;20461;-65
2021/05/31 05:11:13;;;;;;;4.78;3.05;;;;;;;11.99;66.12;100999.19;5035450;28;20083;-65
2021/05/31 05:13:57;;;;;;;6.32;3.88;;;;;;;12.10;66.06;100991.06;5034138;28;20445;-64
2021/05/31 05:16:41;;;;;;;6.97;3.22;;;;;;;12.18;64.87;100993.06;5020092;28;20048;-65
2021/05/31 05:19:24;;;;;;;6.70;4.00;;;;;;;12.27;65.13;100990.41;5035246;28;20048;-65
2021/05/31 05:22:08;;;;;;;3.88;2.88;;;;;;;12.31;64.71;100999.81;5034915;28;20053;-65
2021/05/31 05:24:52;;;;;;;10.45;3.80;;;;;;;12.41;63.59;100995.34;5033926;28;20098;-65
2021/05/31 05:27:37;;;;;;;6.05;3.33;;;;;;;12.47;64.23;100994.81;5034083;28;20516;-65
2021/05/31 05:30:22;;;;;;;;;;;;;;;12.53;63.96;100994.25;5035418;28;20128;-64
2021/05/31 05:33:06;;;;;;;7.90;3.30;;;;;;;12.62;63.40;100985.38;5034748;28;20423;-64
2021/05/31 05:35:54;;;;;;;6.55;3.45;;;;;;;12.73;62.66;100989.75;5034996;28;20051;-65
2021/05/31 05:41:38;;;;;;;6.40;3.75;;;;;;;12.85;60.95;100989.47;5033900;28;20087;-64
2021/05/31 05:50:06;;;;;;;7.13;3.22;;;;;;;13.01;60.36;100989.75;5034745;28;20045;-65
2021/05/31 05:52:49;;;;;;;8.63;3.70;;;;;;;13.09;60.74;100987.22;5033509;28;20099;-65
2021/05/31 05:55:33;;;;;;;4.18;3.10;;;;;;;13.17;60.77;100998.91;5034296;28;20049;-65
2021/05/31 05:58:17;;;;;;;5.55;3.00;;;;;;;13.24;60.17;100989.31;5033157;28;20107;-65
2021/05/31 06:01:03;;;;;;;5.35;3.13;;;;;;;13.31;60.36;100998.47;5034505;28;20095;-65
2021/05/31 06:03:50;;;;;;;6.30;3.22;;;;;;;13.42;61.72;100997.44;5033091;28;20402;-65
2021/05/31 06:06:34;;;;;;;8.05;3.28;;;;;;;13.45;58.92;101005.22;5019432;28;20099;-64
2021/05/31 06:09:20;;;;;;;5.22;3.28;;;;;;;13.49;59.39;100996.75;5032913;28;20128;-65
2021/05/31 06:12:04;;;;;;;4.47;3.08;;;;;;;13.54;59.40;100996.28;5033978;28;20100;-66
2021/05/31 06:14:49;;;;;;;4.47;3.08;;;;;;;13.62;58.96;100996.41;5034477;28;20513;-65
2021/05/31 06:17:32;;;;;;;5.68;3.58;;;;;;;13.63;58.21;100998.94;5033163;28;20135;-65
2021/05/31 06:20:16;;;;;;;4.50;3.17;;;;;;;13.70;58.25;101007.25;5033144;28;20505;-65
2021/05/31 06:23:04;;;;;;;8.48;3.17;;;;;;;13.76;57.58;101004.81;5034031;28;20055;-65
2021/05/31 06:25:48;;;;;;;7.95;3.17;;;;;;;13.82;57.71;101001.56;5019470;28;20084;-65
2021/05/31 06:28:33;;;;;;;6.75;3.28;;;;;;;13.90;57.74;101003.50;5032612;28;20044;-65
2021/05/31 06:31:17;;;;;;;4.72;3.05;;;;;;;13.92;57.33;101002.38;5033975;28;20052;-65
2021/05/31 06:34:01;;;;;;;6.30;2.97;;;;;;;14.01;57.56;101006.84;5032638;28;20537;-65
2021/05/31 06:36:48;;;;;;;8.57;3.28;;;;;;;14.11;57.62;100998.75;5033919;28;20129;-65
2021/05/31 06:39:32;;;;;;;4.03;2.78;;;;;;;14.20;56.40;101000.56;5031633;28;20055;-65
2021/05/31 06:42:16;;;;;;;5.47;2.92;;;;;;;14.26;57.42;100999.97;5032995;28;20052;-65
2021/05/31 06:45:00;;;;;;;5.28;3.05;;;;;;;14.36;56.53;100998.06;5018976;28;20048;-66
2021/05/31 06:47:48;;;;;;;4.63;3.20;;;;;;;14.43;56.77;100993.78;5019228;28;20110;-66
2021/05/31 06:50:33;;;;;;;5.25;2.67;;;;;;;14.52;57.28;100987.50;5018762;28;20506;-65
2021/05/31 06:53:18;;;;;;;6.85;2.97;;;;;;;14.63;56.87;100989.97;5032330;28;20195;-64
2021/05/31 06:56:02;;;;;;;7.40;2.83;;;;;;;14.76;57.29;100985.06;5033415;28;20128;-66
2021/05/31 06:58:46;;;;;;;4.63;2.80;;;;;;;14.85;57.54;100984.13;5033345;28;20156;-65
2021/05/31 07:01:30;;;;;;;4.03;2.65;;;;;;;14.95;56.80;100992.94;5032710;28;20606;-65
2021/05/31 07:04:15;;;;;;;3.78;2.80;;;;;;;15.03;55.89;100984.97;5033350;28;20052;-66
2021/05/31 07:06:59;;;;;;;6.55;3.08;;;;;;;15.15;55.09;100975.66;5032424;28;20052;-66
2021/05/31 07:09:43;;;;;;;4.85;2.45;;;;;;;15.26;54.88;100994.22;5033396;28;20099;-66
2021/05/31 07:12:27;;;;;;;3.60;3.05;;;;;;;15.37;55.33;100986.78;5033391;28;20092;-65
2021/05/31 07:15:13;;;;;;;4.65;2.95;;;;;;;15.49;54.49;100985.50;5035725;28;20087;-65
2021/05/31 07:17:57;;;;;;;5.70;3.20;;;;;;;15.62;53.19;100985.91;5020745;28;20516;-64
2021/05/31 07:20:41;;;;;;;3.15;2.42;;;;;;;15.78;53.01;100983.34;5018781;28;20513;-65
2021/05/31 07:23:26;;;;;;;7.05;2.70;;;;;;;15.87;53.49;100980.50;5032109;28;20071;-66
2021/05/31 07:26:10;;;;;;;6.53;2.90;;;;;;;15.99;51.58;100981.91;5032932;28;20410;-65
2021/05/31 07:28:54;;;;;;;2.92;2.45;;;;;;;16.13;51.27;100981.31;5032131;28;20063;-65
2021/05/31 07:31:38;;;;;;;7.72;3.05;;;;;;;16.27;51.05;100982.53;5032227;28;20043;-66
2021/05/31 07:34:22;;;;;;;4.35;2.80;;;;;;;16.35;51.34;100979.84;5033136;28;20124;-65
2021/05/31 07:37:06;;;;;;;3.25;2.40;;;;;;;16.40;51.38;100972.19;5018316;28;20409;-65
2021/05/31 07:39:51;;;;;;;2.80;2.28;;;;;;;16.48;51.07;100975.72;5018329;28;20055;-65
2021/05/31 07:42:35;;;;;;;6.25;2.63;;;;;;;16.55;49.69;100976.75;5031969;28;20180;-65
2021/05/31 07:45:19;;;;;;;4.60;2.63;;;;;;;16.63;50.26;100968.69;5032872;28;20044;-65
2021/05/31 07:48:04;;;;;;;5.88;2.80;;;;;;;16.78;50.20;100966.19;5031879;28;20057;-65
2021/05/31 07:50:48;;;;;;;4.50;2.58;;;;;;;16.92;48.05;100968.22;5035129;28;20044;-65
2021/05/31 07:53:32;;;;;;;7.07;3.17;;;;;;;17.04;48.68;100956.94;5035795;28;20048;-65
2021/05/31 07:56:16;;;;;;;3.22;2.33;;;;;;;17.20;46.82;100956.91;5021752;28;20127;-66
2021/05/31 07:59:00;;;;;;;3.65;2.30;;;;;;;17.20;47.09;100962.31;5035241;28;20127;-65
2021/05/31 08:01:44;;;;;;;2.83;2.40;;;;;;;17.36;45.21;100953.38;5035496;28;20131;-65
2021/05/31 08:04:28;;;;;;;4.10;2.35;;;;;;;17.48;43.40;100960.94;5035756;28;20079;-66
2021/05/31 08:07:12;;;;;;;4.15;2.20;;;;;;;17.63;42.77;100950.31;5036556;28;20124;-65
2021/05/31 08:09:56;;;;;;;2.60;1.92;;;;;;;17.71;44.31;100951.09;5035297;28;20048;-64
2021/05/31 08:12:40;;;;;;;2.58;2.20;;;;;;;17.84;44.07;100955.97;5036527;28;20056;-66
2021/05/31 08:15:24;;;;;;;7.50;2.47;;;;;;;17.92;43.65;100947.84;5036495;28;20044;-64
2021/05/31 08:18:10;;;;;;;5.38;2.20;;;;;;;18.00;43.70;100927.06;5035523;28;20187;-65
2021/05/31 08:20:54;;;;;;;2.40;2.20;;;;;;;18.23;42.82;100941.44;5036396;28;20120;-66
2021/05/31 08:23:38;;;;;;;3.70;2.28;;;;;;;18.36;42.92;100946.31;5035130;28;20064;-65
2021/05/31 08:26:22;;;;;;;4.32;2.30;;;;;;;18.40;41.72;100932.28;5021503;28;20083;-66
2021/05/31 08:29:07;;;;;;;4.13;2.03;;;;;;;18.42;41.96;100939.19;5035124;28;20052;-65
2021/05/31 08:31:51;;;;;;;4.65;2.45;;;;;;;18.53;38.08;100951.41;5021139;28;20472;-64
2021/05/31 08:34:35;;;;;;;5.70;2.50;;;;;;;18.51;37.07;100943.50;5035753;28;20048;-65
2021/05/31 08:37:19;;;;;;;5.38;2.63;;;;;;;18.56;36.97;100943.81;5035762;28;20056;-66
2021/05/31 08:40:04;;;;;;;4.90;2.45;;;;;;;18.56;37.20;100946.50;5036002;28;20063;-66
2021/05/31 08:42:48;;;;;;;4.20;2.70;;;;;;;18.61;37.54;100945.97;5020827;28;20064;-65
2021/05/31 08:45:33;;;;;;;3.70;2.10;;;;;;;18.70;38.41;100944.91;5034941;28;20081;-65
2021/05/31 08:48:17;;;;;;;7.75;2.42;;;;;;;18.78;39.27;100942.13;5020859;28;20048;-66
2021/05/31 08:51:02;;;;;;;5.45;2.17;;;;;;;18.85;38.86;100945.78;5035651;28;20132;-66
2021/05/31 08:53:46;;;;;;;5.60;2.78;;;;;;;18.87;36.67;100946.47;5020786;28;20098;-66
2021/05/31 08:56:31;;;;;;;4.78;2.13;;;;;;;18.97;37.41;100947.06;5034665;28;20091;-65
2021/05/31 08:59:15;;;;;;;3.90;2.22;;;;;;;18.99;37.28;100937.72;5035496;28;20111;-65
2021/05/31 09:01:59;;;;;;;5.82;2.70;;;;;;;19.01;36.97;100948.34;5033321;28;20052;-65
2021/05/31 09:04:47;;;;;;;3.95;2.58;;;;;;;19.08;36.64;100941.22;5034689;28;20502;-65
2021/05/31 09:07:32;;;;;;;4.40;2.40;;;;;;;19.18;36.54;100945.34;5035281;28;20071;-66
2021/05/31 09:10:17;;;;;;;5.13;2.22;;;;;;;19.31;36.92;100936.63;5020486;28;20481;-65
2021/05/31 09:13:02;;;;;;;5.10;2.33;;;;;;;19.40;36.69;100932.81;5034452;28;20056;-66
2021/05/31 09:15:46;;;;;;;3.47;2.13;;;;;;;19.51;37.02;100935.06;5035326;28;20048;-66
2021/05/31 09:18:30;;;;;;;3.10;2.30;;;;;;;19.69;37.00;100932.84;5034915;28;20053;-66
2021/05/31 09:21:18;;;;;;;5.85;2.22;;;;;;;19.73;34.58;100936.84;5034227;28;20107;-66
2021/05/31 09:24:06;;;;;;;3.50;2.15;;;;;;;19.94;35.45;100921.53;5034742;28;20133;-66
2021/05/31 09:26:51;;;;;;;3.47;2.65;;;;;;;20.09;35.33;100913.44;5035272;28;20107;-65
2021/05/31 09:29:35;;;;;;;10.63;3.03;;;;;;;20.18;34.94;100928.50;5034676;28;20055;-66
2021/05/31 09:32:19;;;;;;;5.05;2.33;;;;;;;20.30;33.99;100924.31;5034097;28;20410;-66
2021/05/31 09:35:07;;;;;;;4.43;2.40;;;;;;;20.32;35.01;100930.34;5034028;28;20401;-66
2021/05/31 09:37:53;;;;;;;6.10;2.60;;;;;;;20.39;33.95;100910.44;5033816;28;20465;-66
2021/05/31 09:40:37;;;;;;;4.82;2.40;;;;;;;20.54;33.09;100913.09;5034613;28;20111;-66
2021/05/31 09:43:23;;;;;;;5.15;2.17;;;;;;;20.68;33.90;100923.03;5034738;28;20053;-66
2021/05/31 09:46:07;;;;;;;3.15;2.22;;;;;;;20.86;33.06;100912.59;5033767;28;20083;-66
2021/05/31 09:48:51;;;;;;;3.10;2.35;;;;;;;21.13;32.90;100917.22;5034666;28;20481;-66
2021/05/31 09:51:35;;;;;;;2.60;2.00;;;;;;;21.32;32.41;100920.94;5034698;28;20051;-66
2021/05/31 09:54:26;;;;;;;3.28;2.17;;;;;;;21.45;31.76;100922.88;5034850;28;20043;-66
2021/05/31 09:57:23;;;;;;;3.80;2.00;;;;;;;21.44;31.54;100919.34;5033097;28;20052;-65
2021/05/31 10:00:20;;;;;;;5.28;2.10;;;;;;;21.72;31.87;100922.06;5034229;28;20121;-66
2021/05/31 10:03:24;;;;;;;6.00;2.40;;;;;;;22.01;30.32;100914.47;5033297;28;20569;-66
2021/05/31 10:06:14;;;;;;;2.70;2.10;;;;;;;22.22;30.58;100914.34;5033726;28;20067;-66
2021/05/31 10:08:58;;;;;;;5.90;2.17;;;;;;;22.61;29.46;100903.63;5034057;28;20049;-63
2021/05/31 10:11:42;;;;;;;4.80;2.13;;;;;;;23.06;30.24;100897.41;5033116;28;20045;-66
2021/05/31 10:14:26;;;;;;;3.78;1.92;;;;;;;23.58;29.79;100901.94;5032774;28;20160;-66
2021/05/31 10:17:13;;;;;;;;;;;;;;;24.13;28.29;100891.31;5033549;28;20048;-66
2021/05/31 10:19:57;;;;;;;4.65;3.20;;;;;;;24.77;28.11;100895.59;5032872;28;19979;-66
2021/05/31 10:22:41;;;;;;;;;;;;;;;25.51;25.14;100892.88;5033401;28;20052;-66
2021/05/31 10:25:26;;;;;;;2.25;1.92;;;;;;;26.42;26.22;100902.69;5032975;28;20397;-66
2021/05/31 10:28:16;;;;;;;2.90;2.10;;;;;;;27.72;23.36;100896.75;5032774;28;20088;-66
2021/05/31 10:31:03;;;;;;;3.20;2.10;;;;;;;29.58;22.13;100892.91;5033910;28;20044;-66
2021/05/31 10:34:03;;;;;;;4.13;1.88;;;;;;;31.85;19.65;100902.19;5033530;28;20111;-66
2021/05/31 10:36:52;;;;;;;2.30;2.10;;;;;;;32.97;18.14;100881.84;5033774;28;20052;-67
2021/05/31 10:39:38;;;;;;;5.60;2.45;;;;;;;33.32;17.12;100879.94;5032703;28;20415;-66
2021/05/31 10:42:23;;;;;;;4.18;2.17;;;;;;;34.35;16.11;100878.28;5033652;28;20052;-66
2021/05/31 10:45:22;;;;;;;2.50;1.90;;;;;;;34.77;16.51;100882.16;5032127;28;20204;-67
2021/05/31 10:48:15;;;;;;;2.80;2.15;;;;;;;35.39;15.84;100873.88;5033128;28;20052;-67
2021/05/31 10:51:00;;;;;;;5.28;2.45;;;;;;;36.13;16.13;100873.38;5032560;28;20182;-67
2021/05/31 10:53:44;;;;;;;3.38;2.30;;;;;;;36.29;15.87;100868.16;5018819;28;20114;-67
2021/05/31 10:56:29;;;;;;;3.25;2.20;;;;;;;37.11;14.53;100867.47;5033586;28;20573;-64
2021/05/31 10:59:19;;;;;;;3.13;2.17;;;;;;;36.92;13.67;100857.47;5032209;28;20052;-65
2021/05/31 11:02:03;;;;;;;3.03;2.30;;;;;;;36.92;14.68;100865.81;5033293;28;20052;-66
2021/05/31 11:04:47;;;;;;;3.17;2.40;;;;;;;36.89;15.47;100858.91;5032017;28;20068;-66
2021/05/31 11:07:31;;;;;;;7.72;2.33;;;;;;;34.50;16.35;100867.09;5032993;28;20430;-66
2021/05/31 11:10:17;;;;;;;2.35;2.15;;;;;;;32.48;19.08;100874.31;5032375;28;20125;-67
2021/05/31 11:13:12;;;;;;;3.53;2.33;;;;;;;30.30;20.65;100865.00;5033352;28;20468;-66
2021/05/31 11:16:08;;;;;;;4.15;1.90;;;;;;;28.47;22.43;100873.72;5032091;28;20056;-66
2021/05/31 11:19:00;;;;;;;5.03;2.28;;;;;;;29.22;21.60;100879.69;5032020;28;20133;-65
2021/05/31 11:21:45;;;;;;;2.20;1.90;;;;;;;30.76;19.50;100880.94;5033303;28;20083;-65
2021/05/31 11:24:29;;;;;;;2.88;2.30;;;;;;;32.46;18.56;100859.97;5033407;28;20552;-65
2021/05/31 11:27:13;;;;;;;4.07;2.22;;;;;;;33.62;17.12;100860.53;5036370;28;20128;-65
2021/05/31 11:29:59;;;;;;;5.25;2.47;;;;;;;34.85;16.83;100861.31;5037347;28;20127;-65
2021/05/31 11:32:43;;;;;;;3.25;2.00;;;;;;;35.70;15.84;100861.38;5035988;28;20544;-65
2021/05/31 11:35:28;;;;;;;2.85;2.40;;;;;;;36.11;15.24;100856.97;5037068;28;20045;-65
2021/05/31 11:38:14;;;;;;;2.65;2.17;;;;;;;36.46;14.64;100857.34;5036170;28;20049;-65
2021/05/31 11:41:07;;;;;;;4.20;2.22;;;;;;;36.77;14.97;100841.06;5035890;28;20084;-65
2021/05/31 11:43:51;;;;;;;2.63;2.17;;;;;;;37.50;14.19;100842.03;5035950;28;20095;-65
2021/05/31 11:46:56;;;;;;;3.05;2.13;;;;;;;37.24;15.06;100843.59;5036958;28;20056;-65
2021/05/31 11:49:40;;;;;;;2.47;2.20;;;;;;;36.90;14.29;100832.78;5035725;28;20064;-66
2021/05/31 11:52:26;;;;;;;2.75;2.00;;;;;;;36.76;13.78;100825.53;5036746;28;20091;-64
2021/05/31 11:55:18;;;;;;;3.05;2.05;;;;;;;37.72;13.87;100833.78;5035902;28;20048;-66
2021/05/31 11:58:03;;;;;;;3.03;2.20;;;;;;;37.61;13.57;100826.78;5035659;28;20091;-65
2021/05/31 12:00:46;;;;;;;3.55;1.90;;;;;;;37.81;12.99;100826.38;5035634;28;20057;-66
2021/05/31 12:03:30;;;;;;;2.45;2.00;;;;;;;37.98;13.19;100829.38;5036543;28;20052;-66
2021/05/31 12:06:14;;;;;;;2.55;2.20;;;;;;;38.02;13.21;100817.28;5036493;28;20048;-66
2021/05/31 12:08:58;;;;;;;4.50;2.22;;;;;;;38.31;13.41;100816.94;5036098;28;20132;-66
2021/05/31 12:11:42;;;;;;;3.90;2.13;;;;;;;38.51;13.44;100813.69;5035490;28;20044;-65
2021/05/31 12:14:27;;;;;;;3.22;2.50;;;;;;;38.40;13.40;100815.06;5037343;28;20403;-65
2021/05/31 12:17:12;;;;;;;3.50;2.40;;;;;;;38.29;12.73;100802.50;5035288;28;20052;-64
2021/05/31 12:19:56;;;;;;;7.50;2.45;;;;;;;37.97;13.42;100811.00;5021562;28;20048;-64
2021/05/31 12:22:41;;;;;;;4.72;2.35;;;;;;;37.60;14.31;100800.09;5035295;28;20072;-64
2021/05/31 12:25:26;;;;;;;2.35;2.00;;;;;;;38.28;14.71;100803.59;5035774;28;20099;-64
2021/05/31 12:28:11;;;;;;;2.83;2.17;;;;;;;38.66;14.67;100804.94;5034995;28;20052;-65
2021/05/31 12:30:56;;;;;;;4.68;2.25;;;;;;;38.92;13.43;100790.06;5035183;28;20048;-64
2021/05/31 12:33:39;;;;;;;2.83;2.13;;;;;;;38.63;13.73;100789.69;5036125;28;20044;-65
2021/05/31 12:36:23;;;;;;;3.35;2.20;;;;;;;38.46;12.38;100794.31;5034757;28;20056;-64
2021/05/31 12:39:07;;;;;;;2.55;2.10;;;;;;;38.18;13.48;100792.69;5020811;28;20410;-66
2021/05/31 12:41:52;;;;;;;2.50;1.88;;;;;;;38.48;12.96;100794.81;5035008;28;20048;-65
2021/05/31 12:44:36;;;;;;;2.88;2.00;;;;;;;37.86;13.50;100790.06;5034851;28;20049;-64
2021/05/31 12:47:21;;;;;;;2.03;1.80;;;;;;;37.59;14.04;100801.22;5035812;28;20056;-65
2021/05/31 12:50:08;;;;;;;4.22;2.20;;;;;;;37.43;14.05;100799.84;5034922;28;20132;-64
2021/05/31 12:52:52;;;;;;;3.22;1.80;;;;;;;37.53;13.92;100797.72;5020982;28;20059;-64
2021/05/31 12:55:38;;;;;;;2.47;2.28;;;;;;;37.35;13.47;100787.47;5035549;28;20065;-65
2021/05/31 12:58:26;;;;;;;2.67;2.25;;;;;;;37.61;13.98;100787.81;5035419;28;20110;-65
2021/05/31 13:01:10;;;;;;;2.92;2.20;;;;;;;38.09;13.74;100777.91;5035694;28;20414;-64
2021/05/31 13:03:56;;;;;;;3.10;2.03;;;;;;;38.17;13.72;100779.91;5035527;28;20406;-65
2021/05/31 13:06:41;;;;;;;4.28;1.98;;;;;;;37.68;14.14;100779.91;5034498;28;20505;-64